createdAt,value
2019-03-02T00:01:09.769Z,90.20
2019-03-02T00:03:48.116Z,90.10
2019-03-02T00:06:24.583Z,90.30
2019-03-02T00:09:02.889Z,90.20
2019-03-02T00:11:38.366Z,90.10
2019-03-02T00:14:15.759Z,89.90
2019-03-02T00:16:55.974Z,90.20
2019-03-02T00:19:32.370Z,90.30
2019-03-02T00:22:09.362Z,90.40
2019-03-02T00:24:44.389Z,90.40
2019-03-02T00:27:21.194Z,90.40
2019-03-02T00:30:00.288Z,90.00
2019-03-02T00:32:41.506Z,90.00
2019-03-02T00:35:15.377Z,90.10
2019-03-02T00:37:57.945Z,89.80
2019-03-02T00:40:33.921Z,89.20
2019-03-02T00:43:10.060Z,88.90
2019-03-02T00:45:49.856Z,89.20
2019-03-02T00:48:27.933Z,89.20
2019-03-02T00:51:11.149Z,89.00
2019-03-02T00:53:43.367Z,89.00
2019-03-02T00:56:18.371Z,89.20
2019-03-02T00:58:56.850Z,88.90
2019-03-02T01:01:35.372Z,89.40
2019-03-02T01:04:13.882Z,89.20
2019-03-02T01:06:51.301Z,88.70
2019-03-02T01:09:26.201Z,88.90
2019-03-02T01:12:01.368Z,88.90
2019-03-02T01:14:45.625Z,88.90
2019-03-02T01:17:22.995Z,89.20
2019-03-02T01:19:57.802Z,88.80
2019-03-02T01:22:33.370Z,88.80
2019-03-02T01:25:13.346Z,88.40
2019-03-02T01:27:50.896Z,89.00
2019-03-02T01:30:30.057Z,88.60
2019-03-02T01:33:25.193Z,88.70
2019-03-02T01:36:02.014Z,88.50
2019-03-02T01:38:43.201Z,88.30
2019-03-02T01:41:19.066Z,88.60
2019-03-02T01:43:53.860Z,88.70
2019-03-02T01:46:32.796Z,88.80
2019-03-02T01:49:12.939Z,89.20
2019-03-02T01:51:54.651Z,89.20
2019-03-02T01:54:37.958Z,89.40
2019-03-02T01:57:16.786Z,88.80
2019-03-02T01:59:56.128Z,89.20
2019-03-02T02:02:32.701Z,88.60
2019-03-02T02:05:09.764Z,88.80
2019-03-02T02:07:54.036Z,89.00
2019-03-02T02:10:32.130Z,89.40
2019-03-02T02:13:10.392Z,89.20
2019-03-02T02:15:47.920Z,89.40
2019-03-02T02:18:27.424Z,89.20
2019-03-02T02:20:59.834Z,88.80
2019-03-02T02:23:38.776Z,88.80
2019-03-02T02:26:12.989Z,88.80
2019-03-02T02:28:49.026Z,88.90
2019-03-02T02:31:24.880Z,89.00
2019-03-02T02:33:59.926Z,89.20
2019-03-02T02:36:37.832Z,89.00
2019-03-02T02:39:17.411Z,89.40
2019-03-02T02:41:54.031Z,89.30
2019-03-02T02:44:33.292Z,88.90
2019-03-02T02:47:12.266Z,88.90
2019-03-02T02:49:51.029Z,89.00
2019-03-02T02:52:36.086Z,89.00
2019-03-02T02:55:11.423Z,89.30
2019-03-02T02:57:46.968Z,89.40
2019-03-02T03:00:40.218Z,89.20
2019-03-02T03:03:15.885Z,89.40
2019-03-02T03:05:55.689Z,89.50
2019-03-02T03:08:49.899Z,89.40
2019-03-02T03:11:28.983Z,89.50
2019-03-02T03:14:03.860Z,89.10
2019-03-02T03:16:42.990Z,89.40
2019-03-02T03:19:31.185Z,90.00
2019-03-02T03:22:11.909Z,90.00
2019-03-02T03:24:53.909Z,89.30
2019-03-02T03:27:28.422Z,89.10
2019-03-02T03:30:04.453Z,88.80
2019-03-02T03:32:54.186Z,88.70
2019-03-02T03:35:20.449Z,88.70
2019-03-02T03:37:59.306Z,88.80
2019-03-02T03:40:32.908Z,89.10
2019-03-02T03:43:10.314Z,89.10
2019-03-02T03:45:46.043Z,89.30
2019-03-02T03:48:19.839Z,89.10
2019-03-02T03:50:58.971Z,89.30
2019-03-02T03:53:33.427Z,89.50
2019-03-02T03:56:07.433Z,89.80
2019-03-02T03:58:46.534Z,89.80
2019-03-02T04:01:27.725Z,89.70
2019-03-02T04:04:04.187Z,89.80
2019-03-02T04:06:40.041Z,89.90
2019-03-02T04:09:14.648Z,89.90
2019-03-02T04:11:49.887Z,89.90
2019-03-02T04:14:24.793Z,89.80
2019-03-02T04:17:01.816Z,89.90
2019-03-02T04:19:42.773Z,89.80
2019-03-02T04:22:25.791Z,89.80
2019-03-02T04:25:02.427Z,89.70
2019-03-02T04:27:37.907Z,89.70
2019-03-02T04:30:14.785Z,89.90
2019-03-02T04:32:49.435Z,89.90
2019-03-02T04:35:24.235Z,89.90
2019-03-02T04:38:02.199Z,89.70
2019-03-02T04:40:37.448Z,89.70
2019-03-02T04:43:12.449Z,90.00
2019-03-02T04:45:53.996Z,90.10
2019-03-02T04:48:35.735Z,90.30
2019-03-02T04:54:18.231Z,90.50
2019-03-02T05:00:36.076Z,90.50
2019-03-02T05:06:56.180Z,90.50
2019-03-02T05:09:31.004Z,90.20
2019-03-02T05:12:05.470Z,90.30
2019-03-02T05:18:27.994Z,90.40
2019-03-02T05:21:05.071Z,90.50
2019-03-02T05:23:45.035Z,90.10
2019-03-02T05:26:24.466Z,90.30
2019-03-02T05:28:59.187Z,90.60
2019-03-02T05:31:40.988Z,90.30
2019-03-02T05:34:18.876Z,90.40
2019-03-02T05:37:17.667Z,90.30
2019-03-02T05:40:00.899Z,90.60
2019-03-02T05:46:21.943Z,90.90
2019-03-02T05:49:05.905Z,91.00
2019-03-02T05:51:42.640Z,90.90
2019-03-02T05:54:24.332Z,90.80
2019-03-02T05:57:00.691Z,91.10
2019-03-02T05:59:35.476Z,91.40
2019-03-02T06:02:18.144Z,91.60
2019-03-02T06:04:53.582Z,91.60
2019-03-02T06:07:27.891Z,92.00
2019-03-02T06:10:04.385Z,92.30
2019-03-02T06:12:41.042Z,92.60
2019-03-02T06:15:18.948Z,92.90
2019-03-02T06:18:04.411Z,92.90
2019-03-02T06:20:44.627Z,92.80
2019-03-02T06:23:22.874Z,93.00
2019-03-02T06:26:00.072Z,93.10
2019-03-02T06:28:36.020Z,93.40
2019-03-02T06:31:19.144Z,93.70
2019-03-02T06:34:00.418Z,93.90
2019-03-02T06:36:36.946Z,93.90
2019-03-02T06:39:17.642Z,93.90
2019-03-02T06:41:56.594Z,93.60
2019-03-02T06:44:35.046Z,93.40
2019-03-02T06:47:12.185Z,94.00
2019-03-02T06:50:00.530Z,94.10
2019-03-02T06:52:42.525Z,94.20
2019-03-02T06:55:20.809Z,94.00
2019-03-02T06:57:54.060Z,93.80
2019-03-02T07:00:28.640Z,93.60
2019-03-02T07:03:10.064Z,93.30
2019-03-02T07:05:46.292Z,92.90
2019-03-02T07:08:22.753Z,93.20
2019-03-02T07:10:58.871Z,93.20
2019-03-02T07:13:37.530Z,92.80
2019-03-02T07:16:16.605Z,92.80
2019-03-02T07:19:21.064Z,92.90
2019-03-02T07:21:57.607Z,92.70
2019-03-02T07:24:32.888Z,93.20
2019-03-02T07:27:14.290Z,92.90
2019-03-02T07:29:55.096Z,92.80
2019-03-02T07:32:29.080Z,92.80
2019-03-02T07:35:08.071Z,92.60
2019-03-02T07:37:45.516Z,92.60
2019-03-02T07:40:24.397Z,92.50
2019-03-02T07:43:00.077Z,92.50
2019-03-02T07:45:41.076Z,92.30
2019-03-02T07:48:21.975Z,92.30
2019-03-02T07:51:01.129Z,92.30
2019-03-02T07:53:36.760Z,92.30
2019-03-02T07:56:13.860Z,92.00
2019-03-02T07:58:51.832Z,91.80
2019-03-02T08:01:30.678Z,91.90
2019-03-02T08:04:10.827Z,91.70
2019-03-02T08:06:46.693Z,92.10
2019-03-02T08:12:41.077Z,92.20
2019-03-02T08:15:25.865Z,92.30
2019-03-02T08:18:00.674Z,92.30
2019-03-02T08:24:22.634Z,92.30
2019-03-02T08:27:05.183Z,92.60
2019-03-02T08:33:09.588Z,92.70
2019-03-02T08:35:48.709Z,92.70
2019-03-02T08:38:26.600Z,92.10
2019-03-02T08:41:05.745Z,91.90
2019-03-02T08:43:46.156Z,91.60
2019-03-02T08:46:28.089Z,91.20
2019-03-02T08:49:06.460Z,91.30
2019-03-02T08:51:53.512Z,91.80
2019-03-02T08:54:34.693Z,91.40
2019-03-02T09:07:21.659Z,90.70
2019-03-02T09:09:57.726Z,90.70
2019-03-02T09:12:35.223Z,89.80
2019-03-02T09:15:22.184Z,89.50
2019-03-02T09:17:58.419Z,89.40
2019-03-02T09:20:36.925Z,89.20
2019-03-02T09:23:16.040Z,88.70
2019-03-02T09:29:40.239Z,89.00
2019-03-02T09:32:14.086Z,89.70
2019-03-02T09:34:54.608Z,89.80
2019-03-02T09:37:33.945Z,88.80
2019-03-02T09:40:10.169Z,88.70
2019-03-02T09:46:28.313Z,88.50
2019-03-02T09:49:07.328Z,88.60
2019-03-02T09:51:48.235Z,88.50
2019-03-02T09:54:29.547Z,88.90
2019-03-02T09:57:08.882Z,88.60
2019-03-02T09:59:45.466Z,88.60
2019-03-02T10:02:22.425Z,88.30
2019-03-02T10:05:14.703Z,88.10
2019-03-02T10:07:54.055Z,87.20
2019-03-02T10:10:31.596Z,87.80
2019-03-02T10:13:09.802Z,87.00
2019-03-02T10:15:53.030Z,86.40
2019-03-02T10:18:27.651Z,86.60
2019-03-02T10:21:07.393Z,86.70
2019-03-02T10:23:43.213Z,86.10
2019-03-02T10:26:23.308Z,87.10
2019-03-02T10:28:59.943Z,86.70
2019-03-02T10:31:36.228Z,86.80
2019-03-02T10:34:19.985Z,85.50
2019-03-02T10:40:19.605Z,84.10
2019-03-02T10:42:58.229Z,84.70
2019-03-02T10:48:41.771Z,85.40
2019-03-02T10:54:48.275Z,84.90
2019-03-02T10:57:32.155Z,86.10
2019-03-02T11:00:09.284Z,86.10
2019-03-02T11:06:34.130Z,85.60
2019-03-02T11:09:27.157Z,85.70
2019-03-02T11:12:30.049Z,85.30
2019-03-02T11:15:29.341Z,85.60
2019-03-02T11:18:34.645Z,86.20
2019-03-02T11:21:24.685Z,86.30
2019-03-02T11:24:17.021Z,86.00
2019-03-02T11:27:04.136Z,85.20
2019-03-02T11:33:41.714Z,85.50
2019-03-02T11:36:40.522Z,83.90
2019-03-02T11:39:39.440Z,84.40
2019-03-02T11:42:26.557Z,84.00
2019-03-02T11:45:31.283Z,83.70
2019-03-02T11:48:56.939Z,83.50
2019-03-02T11:51:45.764Z,83.20
2019-03-02T11:54:51.616Z,83.20
2019-03-02T11:57:48.726Z,83.10
2019-03-02T12:00:44.275Z,82.80
2019-03-02T12:03:44.310Z,81.80
2019-03-02T12:06:41.017Z,82.40
2019-03-02T12:09:36.147Z,82.40
2019-03-02T12:12:23.692Z,82.80
2019-03-02T12:15:24.753Z,83.10
2019-03-02T12:18:04.727Z,82.40
2019-03-02T12:21:05.760Z,81.70
2019-03-02T12:24:03.468Z,81.00
2019-03-02T12:33:32.726Z,81.00
2019-03-02T12:36:17.314Z,81.20
2019-03-02T12:42:58.062Z,79.80
2019-03-02T12:45:56.236Z,81.10
2019-03-02T12:49:00.159Z,80.30
2019-03-02T12:51:58.337Z,79.40
2019-03-02T12:55:05.311Z,78.40
2019-03-02T12:58:02.260Z,77.80
2019-03-02T13:00:47.321Z,77.70
2019-03-02T13:03:44.677Z,78.50
2019-03-02T13:06:41.416Z,78.50
2019-03-02T13:09:36.857Z,78.20
2019-03-02T13:16:01.955Z,78.60
2019-03-02T13:22:31.836Z,79.30
2019-03-02T13:28:50.159Z,77.20
2019-03-02T13:31:58.702Z,78.20
2019-03-02T13:34:52.252Z,78.10
2019-03-02T13:37:57.144Z,76.90
2019-03-02T13:40:47.164Z,76.80
2019-03-02T13:43:37.755Z,76.20
2019-03-02T13:49:56.234Z,77.10
2019-03-02T13:52:51.149Z,76.60
2019-03-02T13:55:42.348Z,76.90
2019-03-02T13:58:43.185Z,76.90
2019-03-02T14:01:45.253Z,76.40
2019-03-02T14:08:09.252Z,77.90
2019-03-02T14:11:02.811Z,77.00
2019-03-02T14:14:03.715Z,76.30
2019-03-02T14:16:59.861Z,75.70
2019-03-02T14:19:48.237Z,76.90
2019-03-02T14:22:36.165Z,77.00
2019-03-02T14:25:51.348Z,75.40
2019-03-02T14:29:08.174Z,75.20
2019-03-02T14:31:58.554Z,75.40
2019-03-02T14:34:53.762Z,75.10
2019-03-02T14:41:16.240Z,74.90
2019-03-02T14:47:43.761Z,74.90
2019-03-02T14:50:52.525Z,74.60
2019-03-02T14:54:08.877Z,74.80
2019-03-02T14:56:59.322Z,74.50
2019-03-02T15:03:37.456Z,75.10
2019-03-02T15:06:44.775Z,75.40
2019-03-02T15:10:01.462Z,75.00
2019-03-02T15:13:02.096Z,74.60
2019-03-02T15:15:58.730Z,74.80
2019-03-02T15:18:51.485Z,74.90
2019-03-02T15:21:55.183Z,75.10
2019-03-02T15:24:53.130Z,75.60
2019-03-02T15:34:14.846Z,75.70
2019-03-02T15:37:35.832Z,75.80
2019-03-02T15:40:49.376Z,75.80
2019-03-02T15:43:47.549Z,76.10
2019-03-02T15:46:49.949Z,75.90
2019-03-02T15:49:45.528Z,75.50
2019-03-02T15:52:47.018Z,75.70
2019-03-02T15:55:45.236Z,75.40
2019-03-02T15:58:51.005Z,76.00
2019-03-02T16:02:04.169Z,75.50
2019-03-02T16:05:11.279Z,75.50
2019-03-02T16:08:10.617Z,75.60
2019-03-02T16:11:03.688Z,76.10
2019-03-02T16:14:05.222Z,76.30
2019-03-02T16:17:09.159Z,76.40
2019-03-02T16:20:22.584Z,76.20
2019-03-02T16:23:26.701Z,76.30
2019-03-02T16:26:25.079Z,75.90
2019-03-02T16:29:19.168Z,76.00
2019-03-02T16:32:20.214Z,76.00
2019-03-02T16:35:25.768Z,76.20
2019-03-02T16:38:27.039Z,76.50
2019-03-02T16:41:25.996Z,76.60
2019-03-02T16:44:18.858Z,76.60
2019-03-02T16:47:21.747Z,76.70
2019-03-02T16:50:07.636Z,76.50
2019-03-02T16:53:02.132Z,76.60
2019-03-02T16:56:04.284Z,77.00
2019-03-02T16:59:14.852Z,77.30
2019-03-02T17:02:05.277Z,77.80
2019-03-02T17:05:12.644Z,77.40
2019-03-02T17:08:11.833Z,77.60
2019-03-02T17:11:08.986Z,77.60
2019-03-02T17:13:57.123Z,77.80
2019-03-02T17:16:50.809Z,77.80
2019-03-02T17:19:42.581Z,78.10
2019-03-02T17:25:42.876Z,78.30
2019-03-02T17:32:25.572Z,78.50
2019-03-02T17:35:38.246Z,78.70
2019-03-02T17:38:51.326Z,78.40
2019-03-02T17:41:51.273Z,78.60
2019-03-02T17:45:01.359Z,78.80
2019-03-02T17:47:46.896Z,78.70
2019-03-02T17:51:01.260Z,78.70
2019-03-02T17:53:50.366Z,78.90
2019-03-02T17:56:37.065Z,79.00
2019-03-02T17:59:31.308Z,79.00
2019-03-02T18:02:15.290Z,79.10
2019-03-02T18:05:23.870Z,79.10
2019-03-02T18:08:08.780Z,78.80
2019-03-02T18:11:13.351Z,78.70
2019-03-02T18:14:03.648Z,78.70
2019-03-02T18:20:15.885Z,79.00
2019-03-02T18:26:25.256Z,78.80
2019-03-02T18:32:30.211Z,78.40
2019-03-02T18:35:07.966Z,78.60
2019-03-02T18:37:49.720Z,78.90
2019-03-02T18:40:24.912Z,78.60
2019-03-02T18:43:08.134Z,78.60
2019-03-02T18:45:45.942Z,78.70
2019-03-02T18:48:45.875Z,78.50
2019-03-02T18:51:46.894Z,78.70
2019-03-02T18:54:27.659Z,78.60
2019-03-02T18:57:04.140Z,78.90
2019-03-02T18:59:44.884Z,79.00
2019-03-02T19:05:52.646Z,78.70
2019-03-02T19:08:34.938Z,78.70
2019-03-02T19:11:15.674Z,79.00
2019-03-02T19:17:20.866Z,78.70
2019-03-02T19:19:57.109Z,78.90
2019-03-02T19:22:32.963Z,79.10
2019-03-02T19:28:48.992Z,79.60
2019-03-02T19:31:29.433Z,80.50
2019-03-02T19:37:37.521Z,80.80
2019-03-02T19:40:20.034Z,80.90
2019-03-02T19:43:02.787Z,80.20
2019-03-02T19:45:39.270Z,79.70
2019-03-02T19:48:19.414Z,79.70
2019-03-02T20:01:13.344Z,79.70
2019-03-02T20:03:54.068Z,79.70
2019-03-02T20:06:31.396Z,80.00
2019-03-02T20:09:09.295Z,80.00
2019-03-02T20:11:45.807Z,80.10
2019-03-02T20:14:24.795Z,79.90
2019-03-02T20:17:07.311Z,80.10
2019-03-02T20:19:46.501Z,79.90
2019-03-02T20:22:27.412Z,80.00
2019-03-02T20:25:09.671Z,80.30
2019-03-02T20:27:43.847Z,80.00
2019-03-02T20:30:24.796Z,80.90
2019-03-02T20:33:06.326Z,81.50
2019-03-02T20:35:41.622Z,82.00
2019-03-02T20:38:18.337Z,81.70
2019-03-02T20:40:55.783Z,81.10
2019-03-02T20:43:34.098Z,81.10
2019-03-02T20:46:15.902Z,81.70
2019-03-02T20:48:57.062Z,81.70
2019-03-02T20:51:31.890Z,80.90
2019-03-02T20:54:07.743Z,80.90
2019-03-02T20:56:47.209Z,81.00
2019-03-02T21:02:19.320Z,80.80
2019-03-02T21:04:55.737Z,80.70
2019-03-02T21:07:32.811Z,80.40
2019-03-02T21:10:10.922Z,80.70
2019-03-02T21:12:47.806Z,80.90
2019-03-02T21:15:29.995Z,80.70
2019-03-02T21:18:06.667Z,80.50
2019-03-02T21:20:50.934Z,79.90
2019-03-02T21:23:28.856Z,79.90
2019-03-02T21:26:05.987Z,79.50
2019-03-02T21:28:43.604Z,79.70
2019-03-02T21:31:20.679Z,79.70
2019-03-02T21:34:00.031Z,79.60
2019-03-02T21:36:42.009Z,79.50
2019-03-02T21:39:28.931Z,79.50
2019-03-02T21:42:08.872Z,79.60
2019-03-02T21:44:47.797Z,79.50
2019-03-02T21:47:44.136Z,79.60
2019-03-02T21:50:24.324Z,79.60
2019-03-02T21:53:03.626Z,79.60
2019-03-02T21:55:43.321Z,79.70
2019-03-02T21:58:30.922Z,79.50
2019-03-02T22:01:35.216Z,79.80
2019-03-02T22:04:11.669Z,79.90
2019-03-02T22:06:46.325Z,80.00
2019-03-02T22:09:25.322Z,80.00
2019-03-02T22:12:01.340Z,79.90
2019-03-02T22:14:36.354Z,80.20
2019-03-02T22:17:15.323Z,80.50
2019-03-02T22:19:55.601Z,80.40
2019-03-02T22:22:32.405Z,80.60
2019-03-02T22:25:23.069Z,80.80
2019-03-02T22:28:04.253Z,81.00
2019-03-02T22:30:39.867Z,81.00
2019-03-02T22:33:16.984Z,81.10
2019-03-02T22:35:57.965Z,81.30
2019-03-02T22:38:32.718Z,81.30
2019-03-02T22:41:10.267Z,81.30
2019-03-02T22:43:49.016Z,81.30
2019-03-02T22:46:32.429Z,81.30
2019-03-02T22:49:08.754Z,81.40
2019-03-02T22:51:47.073Z,81.60
2019-03-02T22:54:27.350Z,81.80
2019-03-02T23:01:22.234Z,81.70
2019-03-02T23:04:01.747Z,81.30
2019-03-02T23:06:37.460Z,81.40
2019-03-02T23:09:21.283Z,81.80
2019-03-02T23:11:56.947Z,81.60
2019-03-02T23:14:41.609Z,81.40
2019-03-02T23:17:17.530Z,81.40
2019-03-02T23:19:59.048Z,81.20
2019-03-02T23:22:36.341Z,81.50
2019-03-02T23:25:22.820Z,81.50
2019-03-02T23:27:58.821Z,81.20
2019-03-02T23:30:38.445Z,81.40
2019-03-02T23:33:17.705Z,81.30
2019-03-02T23:36:02.230Z,81.20
2019-03-02T23:38:44.227Z,81.30
2019-03-02T23:41:20.827Z,81.40
2019-03-02T23:44:10.053Z,81.30
2019-03-02T23:46:51.234Z,81.40
2019-03-02T23:49:39.371Z,81.30
2019-03-02T23:52:23.625Z,81.50
2019-03-02T23:55:05.620Z,81.30
2019-03-02T23:57:40.757Z,81.30
